Aérodrome :
LOGIN :

S'inscrire | Disclaimer

   EN    FR    IT 

 










Légende :    VFR   VFR Marginal   IFR   IFR Intensif   IFR Très Intensif
Visi : 
Plafond : 
>= 8 km
>= 3000ft
5 à 8 km
1000 à 3000 ft
1500m à 5 km
500 à 1000 ft
800 à 1500m
200 à 500 ft
< 800m
< 200 ft
Symboles :   Orages  Brouillard  Fortes neiges  Fortes précipitations  Vent > 20 kt
SIGMETs :   Divers  Orages  Givrage  Turbulence  Onde Orograph.  Cendres Volcan.






- Altitude de l'aérodrome : 412 ft
- Code IATA : ORE


LFOJ - Orleans

DERNIER METAR :
  • 270730Z AUTO 20017KT 9999 OVC011 08/07 Q1010 TEMPO 4000 RA BKN008 BECMG 21018G28KT

METARs EXPIRÉS :
  • 270700Z AUTO 20018KT 9999 -RA OVC010/// ///TCU 08/07 Q1011 TEMPO 4000 RA BKN008 BECMG 21018G28KT
  • 270630Z AUTO 20019KT 9999 BKN015/// BKN033/// BKN039/// ///TCU 08/07 Q1011 TEMPO 4000 RA BKN008 BECMG 21018G28KT
  • 270600Z AUTO 20019KT 9999 FEW010 BKN031 BKN039 08/07 Q1011 TEMPO 4000 RA BKN008 BECMG 21018G28KT
  • 270530Z AUTO 20019KT 9999 -RA SCT013 BKN029 BKN043 08/07 Q1011 TEMPO 4000 RA BKN008 BECMG 21018G28KT
  • 270500Z AUTO 21018KT 9999 -RADZ SCT012/// BKN017/// BKN028/// ///TCU 09/07 Q1011 TEMPO 4000 RA BKN008 BECMG 21018G28KT

TAF AMD TAF LFOJ
Valide du 27 à 04h jusqu'au 28 à 03h UTC


270445Z 2704/2803 21018G28KT 9999 OVC015
TEMPO 2704/2718 4000 RA BKN008
TEMPO 2718/2803 3000 SHRA BKN012 BKN025CB



MET'MAP, la Météo Aéronautique d'un coup d'oeil ! - Copyright ORBIFLY Décembre 2007 - Disclaimer

ORBIFLY MET'MAP TEAM :

Programmation & Développement : Alexandra Zaïnal
Sur une idée originale de : Baudouin d'Aumeries
Assistance à la programmation : Marc-Olivier Méhu
Soutien technique & logistique : Manuel Goepfert

Contact : metmap@orbifly.com




SOURCES & CREDITS :

   NOAA